createdAt,value
2022-12-22T00:01:29.138Z,19.33
2022-12-22T00:04:16.267Z,19.20
2022-12-22T00:07:03.881Z,24.23
2022-12-22T00:09:49.988Z,23.00
2022-12-22T00:12:37.951Z,25.50
2022-12-22T00:15:25.796Z,25.27
2022-12-22T00:18:11.610Z,20.67
2022-12-22T00:20:57.958Z,23.67
2022-12-22T00:23:45.537Z,24.57
2022-12-22T00:26:31.986Z,37.80
2022-12-22T00:29:17.953Z,38.93
2022-12-22T00:32:04.885Z,33.40
2022-12-22T00:34:56.853Z,33.43
2022-12-22T00:37:42.863Z,32.77
2022-12-22T00:40:35.955Z,31.87
2022-12-22T00:43:22.377Z,32.33
2022-12-22T00:46:09.456Z,30.57
2022-12-22T00:48:56.850Z,36.60
2022-12-22T00:51:42.701Z,31.17
2022-12-22T00:54:29.799Z,31.63
2022-12-22T00:57:18.260Z,31.57
2022-12-22T01:00:05.597Z,29.60
2022-12-22T01:02:51.807Z,28.20
2022-12-22T01:05:37.997Z,24.30
2022-12-22T01:08:24.331Z,31.33
2022-12-22T01:11:10.776Z,34.07
2022-12-22T01:13:58.028Z,33.70
2022-12-22T01:16:44.026Z,31.10
2022-12-22T01:19:33.066Z,32.77
2022-12-22T01:22:19.070Z,38.53
2022-12-22T01:25:05.111Z,41.00
2022-12-22T01:27:51.459Z,36.13
2022-12-22T01:30:39.049Z,38.10
2022-12-22T01:33:27.337Z,35.73
2022-12-22T01:36:13.524Z,40.07
2022-12-22T01:38:59.531Z,38.47
2022-12-22T01:41:45.794Z,37.90
2022-12-22T01:44:33.718Z,36.43
2022-12-22T01:47:53.238Z,38.40
2022-12-22T01:50:45.739Z,43.73
2022-12-22T01:53:34.451Z,38.77
2022-12-22T01:56:21.056Z,37.17
2022-12-22T01:59:10.729Z,39.77
2022-12-22T02:01:58.108Z,34.20
2022-12-22T02:04:51.528Z,36.67
2022-12-22T02:07:56.872Z,35.57
2022-12-22T02:10:59.680Z,32.03
2022-12-22T02:13:52.154Z,35.67
2022-12-22T02:16:47.554Z,34.47
2022-12-22T02:19:46.689Z,35.43
2022-12-22T02:22:44.575Z,32.87
2022-12-22T02:25:36.719Z,29.83
2022-12-22T02:28:25.687Z,33.10
2022-12-22T02:31:12.502Z,34.13
2022-12-22T02:33:58.561Z,35.20
2022-12-22T02:36:51.636Z,30.87
2022-12-22T02:39:47.303Z,30.23
2022-12-22T02:42:42.064Z,33.17
2022-12-22T02:45:35.314Z,29.53
2022-12-22T02:48:24.600Z,27.57
2022-12-22T02:51:16.446Z,26.77
2022-12-22T02:54:02.605Z,28.07
2022-12-22T02:56:48.562Z,30.63
2022-12-22T02:59:34.010Z,25.43
2022-12-22T03:02:22.154Z,27.17
2022-12-22T03:05:07.615Z,27.77
2022-12-22T03:07:53.201Z,23.73
2022-12-22T03:10:39.038Z,26.80
2022-12-22T03:13:24.801Z,20.77
2022-12-22T03:16:11.515Z,26.07
2022-12-22T03:18:58.925Z,22.87
2022-12-22T03:21:44.464Z,20.47
2022-12-22T03:24:30.547Z,19.47
2022-12-22T03:26:59.309Z,16.73
2022-12-22T03:29:27.712Z,18.37
2022-12-22T03:31:56.213Z,17.83
2022-12-22T03:34:26.144Z,21.27
2022-12-22T03:36:54.803Z,21.20
2022-12-22T03:39:23.227Z,19.23
2022-12-22T03:42:09.383Z,17.37
2022-12-22T03:45:06.808Z,17.73
2022-12-22T03:47:35.170Z,18.50
2022-12-22T03:50:05.352Z,19.17
2022-12-22T03:52:33.750Z,19.43
2022-12-22T03:55:02.495Z,20.23
2022-12-22T03:57:31.142Z,17.83
2022-12-22T03:59:59.590Z,18.80
2022-12-22T04:02:28.440Z,17.30
2022-12-22T04:04:57.786Z,17.83
2022-12-22T04:07:27.877Z,17.10
2022-12-22T04:10:13.751Z,17.33
2022-12-22T04:12:57.848Z,15.87
2022-12-22T04:15:29.270Z,15.27
2022-12-22T04:17:57.988Z,14.27
2022-12-22T04:20:31.013Z,13.53
2022-12-22T04:23:01.975Z,12.70
2022-12-22T04:25:30.403Z,12.87
2022-12-22T04:28:01.683Z,14.70
2022-12-22T04:30:30.129Z,12.03
2022-12-22T04:32:58.525Z,12.77
2022-12-22T04:35:26.995Z,12.73
2022-12-22T04:37:55.445Z,13.60
2022-12-22T04:40:25.389Z,15.30
2022-12-22T04:42:53.795Z,13.93
2022-12-22T04:45:25.925Z,13.07
2022-12-22T04:47:55.415Z,10.87
2022-12-22T04:50:26.408Z,13.27
2022-12-22T04:52:54.866Z,15.23
2022-12-22T04:55:25.197Z,14.77
2022-12-22T04:57:53.557Z,9.67
2022-12-22T05:00:25.426Z,23.97
2022-12-22T05:02:54.738Z,10.93
2022-12-22T05:05:24.635Z,10.33
2022-12-22T05:07:53.014Z,9.80
2022-12-22T05:10:21.431Z,11.10
2022-12-22T05:13:01.236Z,23.20
2022-12-22T05:15:32.015Z,12.50
2022-12-22T05:18:01.942Z,11.03
2022-12-22T05:20:30.852Z,10.50
2022-12-22T05:23:00.634Z,11.93
2022-12-22T05:25:34.768Z,7.40
2022-12-22T05:28:05.500Z,8.97
2022-12-22T05:30:33.951Z,24.67
2022-12-22T05:33:02.373Z,10.97
2022-12-22T05:35:31.354Z,12.23
2022-12-22T05:37:59.763Z,11.43
2022-12-22T05:40:28.636Z,9.40
2022-12-22T05:42:57.053Z,7.83
2022-12-22T05:45:27.430Z,8.17
2022-12-22T05:47:56.424Z,6.73
2022-12-22T05:50:27.375Z,6.93
2022-12-22T05:52:56.606Z,6.83
2022-12-22T05:55:26.137Z,6.57
2022-12-22T05:57:54.965Z,8.10
2022-12-22T06:00:24.697Z,9.97
2022-12-22T06:02:54.704Z,9.20
2022-12-22T06:05:26.773Z,12.47
2022-12-22T06:07:55.198Z,11.07
2022-12-22T06:10:24.853Z,10.07
2022-12-22T06:12:53.254Z,12.13
2022-12-22T06:15:21.632Z,14.53
2022-12-22T06:17:50.644Z,17.77
2022-12-22T06:20:21.802Z,18.23
2022-12-22T06:22:50.509Z,21.50
2022-12-22T06:25:19.209Z,25.47
2022-12-22T06:27:48.203Z,20.87
2022-12-22T06:30:17.919Z,22.70
2022-12-22T06:32:48.756Z,17.97
2022-12-22T06:35:17.404Z,26.73
2022-12-22T06:37:47.688Z,22.90
2022-12-22T06:40:16.651Z,23.23
2022-12-22T06:43:08.428Z,19.50
2022-12-22T06:45:38.416Z,17.10
2022-12-22T06:48:07.864Z,17.40
2022-12-22T06:50:37.418Z,22.33
2022-12-22T06:53:08.721Z,20.47
2022-12-22T06:55:39.120Z,16.77
2022-12-22T06:58:08.473Z,17.67
2022-12-22T07:00:37.653Z,15.37
2022-12-22T07:03:06.837Z,15.53
2022-12-22T07:05:35.707Z,23.90
2022-12-22T07:08:08.923Z,20.90
2022-12-22T07:11:09.678Z,21.07
2022-12-22T07:13:38.367Z,21.43
2022-12-22T07:16:14.619Z,25.67
2022-12-22T07:18:45.090Z,26.80
2022-12-22T07:21:15.098Z,22.87
2022-12-22T07:23:44.185Z,30.53
2022-12-22T07:26:15.277Z,28.10
2022-12-22T07:28:44.214Z,34.33
2022-12-22T07:31:13.976Z,51.53
2022-12-22T07:33:42.798Z,51.03
2022-12-22T07:36:14.750Z,62.07
2022-12-22T07:38:45.617Z,73.57
2022-12-22T07:41:34.749Z,73.87
2022-12-22T07:44:03.842Z,65.80
2022-12-22T07:46:35.298Z,71.23
2022-12-22T07:49:22.635Z,73.20
2022-12-22T07:51:51.860Z,74.40
2022-12-22T07:54:20.745Z,68.87
2022-12-22T07:56:55.165Z,69.53
2022-12-22T07:59:24.062Z,69.80
2022-12-22T08:01:52.654Z,71.80
2022-12-22T08:04:25.297Z,81.60
2022-12-22T08:06:53.926Z,77.57
2022-12-22T08:09:25.625Z,81.63
2022-12-22T08:11:56.045Z,86.87
2022-12-22T08:14:25.315Z,92.87
2022-12-22T08:16:55.874Z,93.83
2022-12-22T08:19:25.437Z,86.07
2022-12-22T08:21:54.199Z,109.13
2022-12-22T08:24:23.345Z,78.03
2022-12-22T08:26:57.914Z,110.50
2022-12-22T08:29:30.856Z,87.37
2022-12-22T08:32:04.494Z,93.93
2022-12-22T08:34:34.073Z,96.67
2022-12-22T08:37:07.483Z,92.83
2022-12-22T08:39:41.053Z,90.57
2022-12-22T08:42:14.645Z,110.30
2022-12-22T08:44:43.804Z,95.30
2022-12-22T08:47:17.238Z,95.37
2022-12-22T08:49:46.603Z,78.97
2022-12-22T08:52:18.723Z,99.70
2022-12-22T08:54:48.252Z,95.53
2022-12-22T08:57:20.113Z,98.27
2022-12-22T08:59:50.145Z,67.23
2022-12-22T09:02:19.928Z,93.60
2022-12-22T09:04:48.786Z,94.30
2022-12-22T09:07:19.060Z,75.83
2022-12-22T09:09:48.692Z,65.87
2022-12-22T09:12:24.216Z,92.73
2022-12-22T09:14:53.382Z,68.03
2022-12-22T09:17:26.834Z,72.83
2022-12-22T09:20:01.837Z,76.10
2022-12-22T09:22:35.899Z,78.67
2022-12-22T09:25:04.862Z,71.53
2022-12-22T09:27:36.349Z,73.53
2022-12-22T09:30:06.858Z,69.20
2022-12-22T09:32:42.251Z,66.03
2022-12-22T09:35:12.019Z,64.53
2022-12-22T09:37:44.255Z,72.40
2022-12-22T09:40:17.766Z,66.23
2022-12-22T09:42:51.987Z,58.67
2022-12-22T09:45:25.058Z,57.77
2022-12-22T09:47:57.710Z,51.80
2022-12-22T09:50:29.384Z,44.27
2022-12-22T09:53:04.576Z,42.53
2022-12-22T09:55:44.844Z,50.07
2022-12-22T09:58:26.413Z,44.00
2022-12-22T10:01:08.047Z,46.70
2022-12-22T10:03:48.117Z,37.60
2022-12-22T10:06:26.482Z,42.80
2022-12-22T10:08:59.840Z,46.03
2022-12-22T10:11:50.590Z,44.90
2022-12-22T10:14:21.953Z,42.80
2022-12-22T10:16:53.178Z,54.43
2022-12-22T10:19:26.537Z,45.63
2022-12-22T10:22:18.689Z,45.40
2022-12-22T10:24:50.840Z,50.20
2022-12-22T10:27:29.302Z,56.37
2022-12-22T10:30:32.283Z,52.60
2022-12-22T10:33:11.703Z,49.93
2022-12-22T10:35:53.178Z,58.20
2022-12-22T10:38:36.587Z,51.13
2022-12-22T10:41:18.186Z,45.77
2022-12-22T10:43:57.195Z,41.77
2022-12-22T10:46:36.350Z,45.50
2022-12-22T10:49:24.683Z,45.37
2022-12-22T10:52:01.125Z,42.80
2022-12-22T10:54:38.053Z,40.53
2022-12-22T10:57:36.102Z,43.33
2022-12-22T11:00:33.055Z,36.50
2022-12-22T11:03:20.836Z,35.73
2022-12-22T11:05:58.095Z,39.87
2022-12-22T11:08:50.849Z,34.03
2022-12-22T11:11:46.657Z,32.50
2022-12-22T11:14:30.289Z,34.43
2022-12-22T11:17:10.989Z,30.37
2022-12-22T11:20:02.617Z,26.17
2022-12-22T11:22:41.021Z,29.90
2022-12-22T11:25:44.859Z,31.63
2022-12-22T11:28:30.460Z,31.33
2022-12-22T11:31:21.097Z,30.33
2022-12-22T11:34:07.219Z,33.83
2022-12-22T11:36:56.188Z,34.47
2022-12-22T11:39:46.977Z,32.47
2022-12-22T11:42:48.072Z,32.43
2022-12-22T11:45:43.096Z,38.50
2022-12-22T11:48:46.571Z,38.57
2022-12-22T11:51:31.184Z,34.43
2022-12-22T11:54:30.714Z,36.60
2022-12-22T11:57:14.432Z,34.80
2022-12-22T12:00:05.523Z,34.43
2022-12-22T12:03:39.123Z,31.17
2022-12-22T12:06:34.697Z,30.50
2022-12-22T12:09:32.012Z,31.50
2022-12-22T12:12:13.949Z,33.03
2022-12-22T12:15:02.397Z,34.20
2022-12-22T12:18:02.507Z,37.10
2022-12-22T12:21:04.083Z,33.87
2022-12-22T12:23:59.500Z,39.53
2022-12-22T12:26:48.477Z,42.57
2022-12-22T12:29:29.963Z,38.07
2022-12-22T12:32:11.813Z,40.40
2022-12-22T12:34:45.765Z,42.53
2022-12-22T12:37:25.921Z,40.50
2022-12-22T12:40:15.735Z,40.37
2022-12-22T12:42:59.535Z,43.10
2022-12-22T12:45:40.213Z,50.40
2022-12-22T12:48:48.837Z,44.70
2022-12-22T12:51:52.882Z,43.07
2022-12-22T12:54:42.904Z,36.97
2022-12-22T12:57:43.536Z,40.00
2022-12-22T13:00:58.950Z,37.00
2022-12-22T13:07:02.219Z,41.97
2022-12-22T13:09:50.406Z,40.50
2022-12-22T13:12:47.523Z,40.80
2022-12-22T13:15:39.705Z,39.23
2022-12-22T13:18:33.336Z,35.27
2022-12-22T13:24:24.745Z,41.53
2022-12-22T13:27:16.973Z,40.40
2022-12-22T13:29:53.720Z,33.27
2022-12-22T13:32:41.248Z,35.17
2022-12-22T13:35:49.166Z,40.33
2022-12-22T13:38:42.994Z,37.20
2022-12-22T13:41:27.741Z,40.30
2022-12-22T13:44:10.088Z,41.67
2022-12-22T13:46:54.801Z,39.30
2022-12-22T13:49:59.220Z,33.40
2022-12-22T13:52:32.741Z,34.80
2022-12-22T13:55:07.051Z,32.20
2022-12-22T13:57:37.256Z,32.03
2022-12-22T14:00:22.911Z,32.20
2022-12-22T14:02:55.833Z,29.97
2022-12-22T14:05:41.616Z,29.53
2022-12-22T14:08:14.161Z,53.90
2022-12-22T14:10:53.860Z,43.77
2022-12-22T14:13:33.730Z,37.93
2022-12-22T14:16:12.455Z,35.87
2022-12-22T14:18:46.667Z,36.40
2022-12-22T14:21:21.688Z,37.90
2022-12-22T14:23:53.167Z,35.60
2022-12-22T14:26:34.844Z,35.00
2022-12-22T14:29:05.339Z,39.17
2022-12-22T14:31:38.210Z,33.93
2022-12-22T14:34:28.859Z,35.93
2022-12-22T14:37:03.639Z,32.13
2022-12-22T14:39:50.187Z,32.37
2022-12-22T14:42:19.610Z,30.57
2022-12-22T14:44:55.636Z,34.10
2022-12-22T14:47:29.786Z,39.47
2022-12-22T14:50:09.069Z,42.17
2022-12-22T14:52:53.111Z,44.10
2022-12-22T14:55:44.815Z,40.07
2022-12-22T14:58:23.168Z,42.83
2022-12-22T15:01:19.183Z,41.93
2022-12-22T15:04:11.970Z,38.97
2022-12-22T15:06:48.894Z,42.53
2022-12-22T15:10:13.293Z,39.17
2022-12-22T15:12:23.497Z,37.73
2022-12-22T15:15:01.705Z,40.87
2022-12-22T15:17:37.095Z,33.70
2022-12-22T15:20:32.403Z,37.60
2022-12-22T15:23:12.412Z,41.03
2022-12-22T15:26:00.446Z,38.27
2022-12-22T15:28:35.896Z,32.73
2022-12-22T15:31:15.410Z,39.70
2022-12-22T15:33:53.772Z,45.87
2022-12-22T15:36:33.251Z,40.53
2022-12-22T15:39:11.704Z,36.77
2022-12-22T15:41:57.606Z,36.47
2022-12-22T15:44:38.649Z,31.87
2022-12-22T15:47:24.743Z,34.37
2022-12-22T15:49:57.590Z,38.90
2022-12-22T15:52:39.635Z,40.50
2022-12-22T15:55:18.174Z,44.47
2022-12-22T15:58:01.752Z,43.33
2022-12-22T16:00:31.687Z,43.97
2022-12-22T16:03:01.006Z,41.87
2022-12-22T16:05:50.436Z,39.33
2022-12-22T16:08:27.036Z,37.23
2022-12-22T16:10:59.863Z,46.03
2022-12-22T16:13:40.781Z,55.87
2022-12-22T16:16:17.009Z,41.73
2022-12-22T16:18:50.212Z,51.53
2022-12-22T16:21:24.259Z,43.73
2022-12-22T16:23:56.190Z,40.47
2022-12-22T16:26:39.542Z,45.10
2022-12-22T16:29:16.822Z,40.23
2022-12-22T16:31:50.019Z,50.17
2022-12-22T16:34:22.060Z,47.80
2022-12-22T16:37:02.522Z,44.63
2022-12-22T16:39:32.390Z,45.80
2022-12-22T16:45:03.988Z,40.83
2022-12-22T16:47:36.434Z,43.57
2022-12-22T16:50:21.623Z,44.07
2022-12-22T16:53:18.917Z,41.40
2022-12-22T16:55:55.698Z,49.47
2022-12-22T16:58:35.475Z,53.87
2022-12-22T17:01:12.078Z,49.63
2022-12-22T17:03:56.517Z,49.40
2022-12-22T17:06:35.866Z,51.97
2022-12-22T17:09:19.944Z,47.63
2022-12-22T17:11:58.122Z,42.47
2022-12-22T17:14:52.312Z,52.57
2022-12-22T17:17:32.936Z,46.37
2022-12-22T17:20:21.562Z,63.37
2022-12-22T17:22:55.298Z,50.03
2022-12-22T17:25:33.387Z,54.93
2022-12-22T17:28:08.705Z,52.37
2022-12-22T17:30:42.855Z,46.30
2022-12-22T17:33:19.606Z,47.23
2022-12-22T17:36:02.872Z,57.47
2022-12-22T17:38:38.788Z,81.53
2022-12-22T17:41:33.635Z,74.30
2022-12-22T17:44:03.414Z,96.83
2022-12-22T17:46:49.053Z,80.60
2022-12-22T17:49:29.543Z,86.53
2022-12-22T17:52:15.655Z,78.30
2022-12-22T17:54:47.959Z,100.13
2022-12-22T17:57:28.435Z,114.13
2022-12-22T18:00:03.275Z,94.77
2022-12-22T18:02:36.393Z,73.70
2022-12-22T18:05:26.009Z,73.37
2022-12-22T18:08:00.937Z,79.77
2022-12-22T18:10:36.816Z,61.90
2022-12-22T18:13:13.748Z,72.73
2022-12-22T18:15:43.871Z,69.17
2022-12-22T18:18:20.737Z,82.17
2022-12-22T18:21:08.975Z,89.33
2022-12-22T18:23:49.693Z,79.33
2022-12-22T18:26:31.926Z,62.07
2022-12-22T18:29:10.542Z,53.50
2022-12-22T18:31:59.528Z,63.67
2022-12-22T18:34:38.199Z,77.73
2022-12-22T18:37:19.821Z,59.47
2022-12-22T18:39:56.620Z,63.80
2022-12-22T18:42:33.666Z,76.37
2022-12-22T18:45:10.161Z,68.93
2022-12-22T18:47:41.035Z,57.07
2022-12-22T18:50:20.494Z,73.83
2022-12-22T18:52:54.455Z,56.50
2022-12-22T18:55:30.592Z,70.73
2022-12-22T18:58:07.304Z,69.93
2022-12-22T19:00:54.953Z,60.80
2022-12-22T19:03:39.955Z,50.93
2022-12-22T19:06:17.571Z,68.57
2022-12-22T19:08:54.044Z,67.23
2022-12-22T19:11:30.636Z,47.90
2022-12-22T19:14:04.744Z,46.13
2022-12-22T19:16:36.068Z,41.47
2022-12-22T19:19:34.152Z,55.93
2022-12-22T19:22:05.319Z,43.53
2022-12-22T19:24:43.030Z,44.17
2022-12-22T19:27:31.164Z,37.23
2022-12-22T19:30:14.863Z,35.80
2022-12-22T19:32:53.613Z,33.43
2022-12-22T19:35:37.839Z,31.50
2022-12-22T19:38:27.648Z,36.70
2022-12-22T19:41:20.116Z,38.17
2022-12-22T19:43:58.395Z,48.03
2022-12-22T19:46:37.620Z,44.30
2022-12-22T19:49:10.729Z,38.80
2022-12-22T19:51:56.561Z,39.33
2022-12-22T19:54:35.462Z,39.50
2022-12-22T19:57:15.428Z,38.23
2022-12-22T19:59:55.957Z,42.50
2022-12-22T20:02:33.934Z,41.67
2022-12-22T20:05:11.599Z,46.07
2022-12-22T20:08:02.827Z,44.90
2022-12-22T20:10:42.593Z,36.53
2022-12-22T20:13:26.080Z,39.30
2022-12-22T20:16:03.930Z,48.50
2022-12-22T20:18:36.425Z,47.83
2022-12-22T20:21:16.512Z,50.83
2022-12-22T20:23:51.110Z,44.03
2022-12-22T20:26:27.206Z,43.47
2022-12-22T20:29:03.563Z,51.70
2022-12-22T20:31:45.999Z,47.87
2022-12-22T20:34:18.764Z,47.80
2022-12-22T20:40:06.452Z,44.03
2022-12-22T20:42:53.394Z,40.83
2022-12-22T20:45:34.456Z,46.07
2022-12-22T20:48:20.534Z,49.53
2022-12-22T20:51:00.180Z,41.23
2022-12-22T20:53:44.184Z,47.87
2022-12-22T20:56:29.185Z,51.90
2022-12-22T20:59:15.363Z,47.33
2022-12-22T21:01:58.351Z,50.40
2022-12-22T21:04:33.995Z,50.47
2022-12-22T21:07:12.325Z,53.60
2022-12-22T21:09:50.613Z,47.10
2022-12-22T21:12:32.655Z,45.83
2022-12-22T21:18:22.294Z,49.50
2022-12-22T21:21:06.883Z,55.73
2022-12-22T21:23:54.916Z,56.40
2022-12-22T21:26:49.836Z,49.00
2022-12-22T21:29:30.232Z,58.20
2022-12-22T21:32:03.911Z,51.40
2022-12-22T21:34:45.037Z,47.13
2022-12-22T21:37:23.947Z,43.20
2022-12-22T21:40:01.736Z,47.03
2022-12-22T21:42:36.289Z,60.53
2022-12-22T21:45:13.997Z,53.70
2022-12-22T21:48:06.410Z,35.93
2022-12-22T21:50:44.453Z,44.17
2022-12-22T21:53:22.809Z,49.50
2022-12-22T21:55:52.733Z,53.23
2022-12-22T21:58:29.357Z,56.00
2022-12-22T22:01:02.474Z,50.60
2022-12-22T22:03:45.281Z,54.47
2022-12-22T22:06:28.514Z,57.03
2022-12-22T22:09:06.630Z,50.47
2022-12-22T22:12:05.975Z,46.90
2022-12-22T22:14:36.478Z,53.90
2022-12-22T22:17:13.057Z,56.37
2022-12-22T22:19:46.226Z,51.93
2022-12-22T22:22:23.684Z,53.70
2022-12-22T22:24:56.192Z,52.70
2022-12-22T22:27:31.542Z,56.67
2022-12-22T22:30:07.460Z,57.27
2022-12-22T22:32:37.624Z,48.67
2022-12-22T22:35:07.604Z,64.27
2022-12-22T22:37:40.326Z,51.53
2022-12-22T22:40:15.466Z,57.07
2022-12-22T22:42:45.743Z,47.43
2022-12-22T22:45:25.626Z,49.27
2022-12-22T22:47:55.154Z,42.30
2022-12-22T22:50:29.980Z,49.83
2022-12-22T22:53:00.558Z,42.60
2022-12-22T22:55:32.492Z,44.77
2022-12-22T22:58:02.097Z,38.13
2022-12-22T23:00:34.763Z,41.53
2022-12-22T23:03:03.942Z,47.20
2022-12-22T23:05:32.803Z,44.37
2022-12-22T23:08:08.161Z,44.10
2022-12-22T23:10:41.618Z,49.20
2022-12-22T23:13:11.567Z,44.50
2022-12-22T23:15:42.049Z,59.63
2022-12-22T23:18:10.986Z,78.77
2022-12-22T23:20:39.455Z,44.53
2022-12-22T23:23:09.873Z,111.70
2022-12-22T23:25:43.901Z,69.87
2022-12-22T23:28:13.097Z,65.07
2022-12-22T23:30:41.954Z,55.33
2022-12-22T23:33:10.912Z,41.63
2022-12-22T23:35:40.981Z,54.57
2022-12-22T23:38:12.351Z,54.30
2022-12-22T23:40:52.311Z,54.90
2022-12-22T23:43:22.201Z,48.57
2022-12-22T23:45:51.327Z,44.93
2022-12-22T23:48:20.367Z,39.47
2022-12-22T23:50:50.015Z,41.03
2022-12-22T23:53:20.716Z,37.33
2022-12-22T23:55:49.605Z,46.50
2022-12-22T23:58:19.334Z,36.90
